Time;durP1;ratioP1;P1;durP2;ratioP2;P2;SDS_P1;SDS_P2;PMS_P1;PMS_P2;Temp;Humidity;BMP_temperature;BMP_pressure;BME280_temperature;BME280_humidity;BME280_pressure;Samples;Min_cycle;Max_cycle;Signal;HPM_P1;HPM_P2
2022/06/24 11:34:26;;;;;;;9.63;2.33;;;29.50;75.30;;;;;;4744816;23;20064;31
2022/06/24 11:36:52;;;;;;;8.68;2.92;;;29.40;75.20;;;;;;4927947;29;20055;-76
2022/06/24 11:39:18;;;;;;;10.65;2.47;;;29.30;77.40;;;;;;4934456;29;20508;-77
2022/06/24 11:41:47;;;;;;;9.90;2.15;;;29.40;74.40;;;;;;4938001;29;20027;-76
2022/06/24 11:44:13;;;;;;;4.30;2.08;;;29.30;74.90;;;;;;4937988;29;20107;-76
2022/06/24 11:46:39;;;;;;;6.43;2.20;;;29.40;76.30;;;;;;4938116;29;20177;-76
2022/06/24 11:49:05;;;;;;;7.15;2.25;;;29.70;76.50;;;;;;4938054;29;20241;-76
2022/06/24 11:51:31;;;;;;;8.02;1.85;;;30.00;74.80;;;;;;4937781;29;20233;-76
2022/06/24 11:54:04;;;;;;;10.75;2.70;;;30.00;75.00;;;;;;4920978;29;20500;-76
2022/06/24 11:56:32;;;;;;;8.32;2.42;;;30.00;75.70;;;;;;4920687;29;20119;-76
2022/06/24 11:59:06;;;;;;;10.68;2.80;;;29.90;74.50;;;;;;4937801;29;20031;-76
2022/06/24 12:01:33;;;;;;;10.13;2.28;;;30.00;74.60;;;;;;4937784;29;20031;-76
2022/06/24 12:04:01;;;;;;;4.70;1.88;;;29.90;74.40;;;;;;4940560;29;20019;-76
2022/06/24 12:06:28;;;;;;;8.10;2.35;;;29.80;75.20;;;;;;4956413;29;20035;-76
2022/06/24 12:08:55;;;;;;;8.90;2.25;;;29.80;74.10;;;;;;4956665;29;20057;-75
2022/06/24 12:11:22;;;;;;;8.68;2.75;;;29.70;74.40;;;;;;4939521;29;20075;-76
2022/06/24 12:14:00;;;;;;;3.67;1.77;;;29.70;76.20;;;;;;4956898;29;20030;-77
2022/06/24 12:16:27;;;;;;;5.60;2.10;;;29.70;76.50;;;;;;4956415;29;20027;-76
2022/06/24 12:18:54;;;;;;;9.57;2.38;;;29.70;76.60;;;;;;4956778;29;20027;-76
2022/06/24 12:21:28;;;;;;;12.82;2.30;;;29.80;75.90;;;;;;4956808;29;20075;-76
2022/06/24 12:23:54;;;;;;;5.28;2.53;;;30.10;77.20;;;;;;4955198;29;20433;-76
2022/06/24 12:26:25;;;;;;;4.57;2.05;;;30.40;76.00;;;;;;4956238;29;20460;-76
2022/06/24 12:29:05;;;;;;;5.13;2.20;;;30.70;75.00;;;;;;4939340;29;20114;-76
2022/06/24 12:31:32;;;;;;;6.25;2.60;;;30.90;70.80;;;;;;4956420;29;20070;-76
2022/06/24 12:33:59;;;;;;;6.70;2.08;;;31.00;69.50;;;;;;4956521;29;20039;-76
2022/06/24 12:36:44;;;;;;;3.58;1.73;;;31.10;68.50;;;;;;4956016;29;20067;-76
2022/06/24 12:39:11;;;;;;;5.47;2.00;;;31.20;66.80;;;;;;4938943;29;20392;-76
2022/06/24 12:41:42;;;;;;;7.70;2.10;;;31.30;68.20;;;;;;4956098;29;20031;-76
2022/06/24 12:44:08;;;;;;;8.70;2.60;;;31.30;68.40;;;;;;4937984;29;20351;-75
2022/06/24 12:46:34;;;;;;;14.57;2.60;;;31.40;67.70;;;;;;4936583;29;20114;-77
2022/06/24 12:51:47;;;;;;;11.15;2.67;;;31.70;66.20;;;;;;4936026;29;20047;-76
2022/06/24 12:54:15;;;;;;;5.70;1.60;;;31.80;66.60;;;;;;4918640;29;20050;-76
2022/06/24 12:56:44;;;;;;;5.60;2.30;;;31.60;65.80;;;;;;4935259;29;20114;-76
2022/06/24 12:59:10;;;;;;;4.32;1.38;;;31.70;65.50;;;;;;4935632;29;20030;-76
2022/06/24 13:01:44;;;;;;;11.48;1.88;;;31.90;65.80;;;;;;4918564;29;20032;-75
2022/06/24 13:04:11;;;;;;;5.70;1.92;;;31.90;66.30;;;;;;4936067;29;20067;-76
2022/06/24 13:06:37;;;;;;;5.65;1.95;;;31.90;66.60;;;;;;4935794;29;20032;-77
2022/06/24 13:09:05;;;;;;;7.15;1.95;;;31.90;66.60;;;;;;4936036;29;20027;-76
2022/06/24 13:11:32;;;;;;;6.38;1.50;;;32.00;64.90;;;;;;4918556;29;20063;-76
2022/06/24 13:13:57;;;;;;;4.78;1.63;;;32.00;61.50;;;;;;4935482;29;20020;-76
2022/06/24 13:16:23;;;;;;;6.93;1.75;;;32.20;59.60;;;;;;4934452;29;20082;-76
2022/06/24 13:18:49;;;;;;;6.80;1.35;;;32.40;58.80;;;;;;4932447;29;20032;-76
2022/06/24 13:21:15;;;;;;;5.28;1.45;;;32.60;57.20;;;;;;4930378;29;20059;-76
2022/06/24 13:23:40;;;;;;;4.50;1.88;;;32.70;55.20;;;;;;4930075;29;20035;-77
2022/06/24 13:26:06;;;;;;;5.72;1.63;;;32.80;54.00;;;;;;4931471;29;20028;-77
2022/06/24 13:28:35;;;;;;;4.65;1.42;;;33.00;54.90;;;;;;4930183;29;20067;-76
2022/06/24 13:31:04;;;;;;;4.90;1.00;;;33.20;55.00;;;;;;4930519;29;20023;-76
2022/06/24 13:33:29;;;;;;;3.60;1.15;;;33.40;52.90;;;;;;4932138;29;20363;-76
2022/06/24 13:35:55;;;;;;;6.80;1.83;;;33.40;51.80;;;;;;4931146;29;20058;-76
2022/06/24 13:38:23;;;;;;;13.65;1.88;;;33.50;51.00;;;;;;4930729;29;20028;-76
2022/06/24 13:40:49;;;;;;;3.75;1.20;;;33.40;47.90;;;;;;4930248;29;20294;-76
2022/06/24 13:43:18;;;;;;;3.47;1.88;;;33.40;47.90;;;;;;4929700;29;20035;-76
2022/06/24 13:45:45;;;;;;;7.53;1.27;;;33.50;48.10;;;;;;4930321;29;20635;-76
2022/06/24 13:48:11;;;;;;;3.65;1.38;;;33.70;48.70;;;;;;4931081;29;20349;-76
2022/06/24 13:50:38;;;;;;;3.40;1.25;;;33.80;46.60;;;;;;4929755;29;20016;-76
2022/06/24 13:53:03;;;;;;;2.35;1.35;;;33.70;45.00;;;;;;4935420;29;20111;-75
2022/06/24 13:55:29;;;;;;;3.47;1.42;;;33.60;44.90;;;;;;4929938;29;20118;-75
2022/06/24 13:57:55;;;;;;;5.53;1.30;;;33.80;46.80;;;;;;4925610;29;20478;-75
2022/06/24 14:00:21;;;;;;;7.18;1.42;;;33.80;46.90;;;;;;4929671;29;20040;-76
2022/06/24 14:02:47;;;;;;;4.32;1.10;;;33.70;46.70;;;;;;4929411;29;20697;-77
2022/06/24 14:05:12;;;;;;;2.22;1.20;;;33.80;46.90;;;;;;4938942;29;20482;-76
2022/06/24 14:07:38;;;;;;;8.73;1.45;;;33.90;47.10;;;;;;4914086;29;20055;-75
2022/06/24 14:10:04;;;;;;;4.43;1.23;;;33.80;47.70;;;;;;4930236;29;20485;-76
2022/06/24 14:12:31;;;;;;;3.50;1.17;;;33.80;45.20;;;;;;4931521;29;20056;-76
2022/06/24 14:14:57;;;;;;;3.53;0.82;;;33.70;45.70;;;;;;4930793;29;20118;-76
2022/06/24 14:17:23;;;;;;;10.60;1.05;;;33.40;46.10;;;;;;4931058;29;20481;-76
2022/06/24 14:19:49;;;;;;;2.67;1.50;;;33.20;46.80;;;;;;4931181;29;20559;-76
2022/06/24 14:22:14;;;;;;;2.95;1.10;;;32.90;47.50;;;;;;4930611;29;20034;-76
2022/06/24 14:24:40;;;;;;;6.43;1.52;;;32.80;49.20;;;;;;4931155;29;20036;-76
2022/06/24 14:27:08;;;;;;;7.22;1.42;;;32.70;49.50;;;;;;4930579;29;20035;-76
2022/06/24 14:29:36;;;;;;;2.83;1.00;;;32.50;48.80;;;;;;4930313;29;20083;-77
2022/06/24 14:32:02;;;;;;;4.72;1.23;;;32.50;50.10;;;;;;4931361;29;20366;-76
2022/06/24 14:34:30;;;;;;;2.70;0.98;;;32.40;50.70;;;;;;4930112;29;20059;-76
2022/06/24 14:36:57;;;;;;;6.45;1.42;;;32.20;48.50;;;;;;4929501;29;20581;-76
2022/06/24 14:42:07;;;;;;;2.55;1.48;;;32.00;50.40;;;;;;4912069;29;20055;-76
2022/06/24 14:44:33;;;;;;;8.25;1.60;;;31.90;49.80;;;;;;4923287;29;20012;-76
2022/06/24 14:47:00;;;;;;;2.40;0.70;;;31.70;50.40;;;;;;4912831;29;20050;-76
2022/06/24 14:49:27;;;;;;;8.80;1.10;;;31.60;50.40;;;;;;4930734;29;20481;-76
2022/06/24 14:51:53;;;;;;;15.38;1.50;;;31.50;51.40;;;;;;4930244;29;20047;-77
2022/06/24 14:54:18;;;;;;;2.63;1.00;;;31.50;51.20;;;;;;4928920;29;20086;-76
2022/06/24 14:56:44;;;;;;;9.00;1.38;;;31.40;51.80;;;;;;4930543;29;20338;-76
2022/06/24 14:59:11;;;;;;;3.10;1.00;;;31.30;52.00;;;;;;4929852;29;20099;-76
2022/06/24 15:01:36;;;;;;;4.70;1.10;;;31.20;51.30;;;;;;4930804;29;20027;-76
2022/06/24 15:04:02;;;;;;;5.63;1.20;;;31.00;51.20;;;;;;4929714;29;20031;-77
2022/06/24 15:06:29;;;;;;;2.45;1.13;;;31.00;51.70;;;;;;4929895;29;20127;-77
2022/06/24 15:08:55;;;;;;;5.03;1.70;;;30.90;52.00;;;;;;4930534;29;20043;-76
2022/06/24 15:11:21;;;;;;;5.47;1.45;;;30.80;52.60;;;;;;4929549;29;20031;-76
2022/06/24 15:13:46;;;;;;;5.82;1.70;;;30.80;53.10;;;;;;4930421;29;20492;-76
2022/06/24 15:16:12;;;;;;;6.75;1.20;;;30.70;52.70;;;;;;4929359;29;20421;-76
2022/06/24 15:18:38;;;;;;;2.75;1.50;;;30.50;53.00;;;;;;4929434;29;20493;-76
2022/06/24 15:21:04;;;;;;;4.38;2.10;;;30.50;53.70;;;;;;4929173;29;20035;-77
2022/06/24 15:23:29;;;;;;;2.58;1.23;;;30.40;52.70;;;;;;4912622;29;20031;-76
2022/06/24 15:25:56;;;;;;;3.78;1.23;;;30.30;53.40;;;;;;4930093;29;20031;-77
2022/06/24 15:28:24;;;;;;;4.47;1.10;;;30.20;53.30;;;;;;4930139;29;20020;-76
2022/06/24 15:30:50;;;;;;;7.13;1.63;;;30.20;53.90;;;;;;4929442;29;20020;-77
2022/06/24 15:33:16;;;;;;;9.20;1.35;;;30.10;53.60;;;;;;4930378;29;20394;-77
2022/06/24 15:35:42;;;;;;;5.47;1.48;;;30.00;53.80;;;;;;4912659;29;20055;-77
2022/06/24 15:38:08;;;;;;;10.35;1.63;;;29.90;54.60;;;;;;4929520;29;20038;-77
2022/06/24 15:40:33;;;;;;;8.18;1.45;;;29.90;54.70;;;;;;4930186;29;20032;-77
2022/06/24 15:42:59;;;;;;;5.40;1.60;;;29.70;54.60;;;;;;4929424;29;20032;-77
2022/06/24 15:45:25;;;;;;;3.17;1.20;;;29.50;54.90;;;;;;4912905;29;20031;-77
2022/06/24 15:47:54;;;;;;;5.85;1.17;;;29.40;55.60;;;;;;4929944;29;20020;-77
2022/06/24 15:50:20;;;;;;;6.82;1.20;;;29.40;55.40;;;;;;4929114;29;20046;-77
2022/06/24 15:52:46;;;;;;;6.70;1.20;;;29.30;56.00;;;;;;4930030;29;20111;-76
2022/06/24 15:55:12;;;;;;;4.90;1.42;;;29.30;57.10;;;;;;4929614;29;20095;-76
2022/06/24 15:57:38;;;;;;;6.40;1.25;;;29.30;56.40;;;;;;4944875;29;20123;-76
2022/06/24 16:00:04;;;;;;;5.68;1.55;;;29.10;57.00;;;;;;4948198;29;20392;-77
2022/06/24 16:02:30;;;;;;;8.80;1.83;;;28.60;65.90;;;;;;4948552;29;20458;-77
2022/06/24 16:04:56;;;;;;;14.52;2.10;;;27.90;69.40;;;;;;4948977;29;20054;-77
2022/06/24 16:07:21;;;;;;;7.72;2.13;;;27.40;72.70;;;;;;4931618;29;20058;-76
2022/06/24 16:09:47;;;;;;;4.28;1.42;;;26.90;75.30;;;;;;4948520;29;20042;-76
2022/06/24 16:12:28;;;;;;;4.68;1.52;;;26.90;78.00;;;;;;4948274;29;20023;-75
2022/06/24 16:14:55;;;;;;;3.00;1.25;;;26.70;81.10;;;;;;4949658;29;20051;-76
2022/06/24 16:17:21;;;;;;;2.53;1.30;;;26.50;84.80;;;;;;4952881;29;20078;-76
2022/06/24 16:19:46;;;;;;;5.22;1.10;;;26.40;86.40;;;;;;4953231;29;20027;-76
2022/06/24 16:22:12;;;;;;;2.47;1.20;;;26.30;85.00;;;;;;4952790;29;20397;-76
2022/06/24 16:30:07;;;;;;;4.15;1.38;;;26.20;85.00;;;;;;4937030;29;20453;-75
2022/06/24 16:32:33;;;;;;;7.63;1.10;;;26.30;83.60;;;;;;4937856;29;20546;-76
2022/06/24 16:34:58;;;;;;;5.30;1.30;;;26.30;81.40;;;;;;4956003;29;20023;-76
2022/06/24 16:37:24;;;;;;;1.88;0.90;;;26.30;79.70;;;;;;4953559;29;20524;-76
2022/06/24 16:39:50;;;;;;;3.22;1.30;;;26.20;77.20;;;;;;4955947;29;20119;-76
2022/06/24 16:42:16;;;;;;;4.07;1.02;;;26.20;76.80;;;;;;4955561;29;20027;-75
2022/06/24 16:44:41;;;;;;;1.27;0.77;;;26.20;75.80;;;;;;4956484;29;20027;-76
2022/06/24 16:47:07;;;;;;;2.15;0.82;;;26.20;75.70;;;;;;4956728;29;20026;-76
2022/06/24 16:49:33;;;;;;;0.77;0.77;;;26.10;74.30;;;;;;4955674;29;20028;-76
2022/06/24 16:51:59;;;;;;;1.50;0.80;;;26.20;73.00;;;;;;4955451;29;20031;-76
2022/06/24 16:54:24;;;;;;;0.98;0.70;;;26.20;70.60;;;;;;4956213;29;20030;-76
2022/06/24 16:56:50;;;;;;;2.78;1.35;;;26.40;70.40;;;;;;4956196;29;20030;-76
2022/06/24 16:59:16;;;;;;;0.95;0.85;;;26.50;68.80;;;;;;4954696;29;20461;-76
2022/06/24 17:01:41;;;;;;;2.03;1.00;;;26.60;67.90;;;;;;4955943;29;20031;-75
2022/06/24 17:04:07;;;;;;;3.30;0.95;;;26.60;64.70;;;;;;4955963;29;20019;-76
2022/06/24 17:06:33;;;;;;;1.33;0.75;;;26.50;64.60;;;;;;4955689;29;20036;-76
2022/06/24 17:08:59;;;;;;;0.57;0.57;;;26.40;63.30;;;;;;4936140;29;20020;-76
2022/06/24 17:11:25;;;;;;;0.85;0.45;;;26.50;63.70;;;;;;4936683;29;20032;-76
2022/06/24 17:13:51;;;;;;;1.33;0.70;;;26.50;62.90;;;;;;4936579;29;20024;-76
2022/06/24 17:16:17;;;;;;;1.65;0.65;;;26.50;63.00;;;;;;4919571;29;20038;-76
2022/06/24 17:18:43;;;;;;;1.45;0.88;;;26.50;62.70;;;;;;4936846;29;20028;-75
2022/06/24 17:21:09;;;;;;;2.20;0.70;;;26.60;62.10;;;;;;4935186;29;20038;-76
2022/06/24 17:23:35;;;;;;;3.53;0.70;;;26.80;62.60;;;;;;4936520;29;20143;-76
2022/06/24 17:26:01;;;;;;;0.60;0.50;;;26.80;60.20;;;;;;4935065;29;20482;-76
2022/06/24 17:28:27;;;;;;;4.95;1.00;;;27.00;60.20;;;;;;4936419;29;20055;-76
2022/06/24 17:30:53;;;;;;;3.35;0.60;;;27.10;60.00;;;;;;4919503;29;20047;-76
2022/06/24 17:33:19;;;;;;;3.72;0.50;;;27.00;58.90;;;;;;4936212;29;20024;-76
2022/06/24 17:35:45;;;;;;;1.50;1.00;;;27.30;59.10;;;;;;4936254;29;20059;-76
2022/06/24 17:38:12;;;;;;;2.42;0.70;;;27.50;58.20;;;;;;4946533;28;20037;-76
2022/06/24 17:40:38;;;;;;;1.33;0.80;;;27.60;57.60;;;;;;4954434;29;20094;-76
2022/06/24 17:43:04;;;;;;;0.77;0.70;;;27.80;57.10;;;;;;4955019;29;20023;-76
2022/06/24 17:45:30;;;;;;;3.67;0.75;;;27.90;56.20;;;;;;4938059;29;20031;-76
2022/06/24 17:47:56;;;;;;;2.38;0.75;;;28.00;56.40;;;;;;4954865;29;20035;-76
2022/06/24 17:50:22;;;;;;;0.65;0.65;;;28.00;56.20;;;;;;4938220;29;20050;-76
2022/06/24 17:52:49;;;;;;;0.90;0.55;;;28.10;56.90;;;;;;4955236;29;20019;-76
2022/06/24 17:55:15;;;;;;;1.75;0.68;;;28.20;56.80;;;;;;4954777;29;20023;-76
2022/06/24 17:57:41;;;;;;;1.73;0.80;;;28.20;56.10;;;;;;4954974;29;20027;-76
2022/06/24 18:00:07;;;;;;;0.70;0.70;;;28.00;56.00;;;;;;4937817;29;20035;-76
2022/06/24 18:02:33;;;;;;;0.90;0.70;;;27.90;56.40;;;;;;4955039;29;20029;-76
2022/06/24 18:04:59;;;;;;;2.63;0.85;;;27.80;56.90;;;;;;4937623;29;20397;-76
2022/06/24 18:07:25;;;;;;;2.28;0.70;;;27.60;57.50;;;;;;4954712;29;20386;-76
2022/06/24 18:09:51;;;;;;;2.85;0.70;;;27.50;57.40;;;;;;4953853;29;20031;-76
2022/06/24 18:12:17;;;;;;;0.90;0.70;;;27.40;57.50;;;;;;4953404;29;20027;-75
2022/06/24 18:14:42;;;;;;;1.30;0.80;;;27.30;57.70;;;;;;4954543;29;20038;-75
2022/06/24 18:17:08;;;;;;;3.00;0.85;;;27.30;58.00;;;;;;4937470;29;20026;-75
2022/06/24 18:19:34;;;;;;;5.60;1.00;;;27.20;58.60;;;;;;4954491;29;20377;-76
2022/06/24 18:22:00;;;;;;;1.52;0.80;;;27.10;59.20;;;;;;4937182;29;20495;-75
2022/06/24 18:24:26;;;;;;;0.93;0.63;;;27.20;60.00;;;;;;4954486;29;20470;-75
2022/06/24 18:26:52;;;;;;;1.88;0.80;;;27.10;59.80;;;;;;4954263;29;20031;-75
2022/06/24 18:29:18;;;;;;;1.80;0.98;;;27.00;60.00;;;;;;4954339;29;20384;-74
2022/06/24 18:31:44;;;;;;;1.73;0.90;;;27.00;60.30;;;;;;4937244;29;20046;-75
2022/06/24 18:34:11;;;;;;;2.78;1.05;;;26.90;60.50;;;;;;4954076;29;20463;-75
2022/06/24 18:36:37;;;;;;;0.68;0.45;;;26.90;60.70;;;;;;4950755;28;20142;-75
2022/06/24 18:39:05;;;;;;;4.47;0.90;;;26.90;60.70;;;;;;4927387;29;20439;-75
2022/06/24 18:41:31;;;;;;;1.83;0.77;;;26.80;61.10;;;;;;4935060;29;20019;-75
2022/06/24 18:43:57;;;;;;;1.45;1.00;;;26.80;61.20;;;;;;4934814;29;20087;-75
2022/06/24 18:46:23;;;;;;;4.10;1.70;;;26.80;61.90;;;;;;4934837;29;20034;-74
2022/06/24 18:48:49;;;;;;;5.85;1.05;;;26.70;62.10;;;;;;4934528;29;20385;-75
2022/06/24 18:51:15;;;;;;;4.68;1.55;;;26.60;62.20;;;;;;4932947;29;20111;-76
2022/06/24 18:53:41;;;;;;;3.50;1.05;;;26.50;63.30;;;;;;4917752;29;20020;-75
2022/06/24 18:56:07;;;;;;;1.38;1.00;;;26.50;63.50;;;;;;4917610;29;20031;-75
2022/06/24 18:58:33;;;;;;;1.77;0.90;;;26.50;63.60;;;;;;4917389;29;20116;-75
2022/06/24 19:00:58;;;;;;;1.13;0.93;;;26.40;64.20;;;;;;4917708;29;20494;-75
2022/06/24 19:03:24;;;;;;;3.10;1.08;;;26.40;64.50;;;;;;4934799;29;20024;-74
2022/06/24 19:05:50;;;;;;;3.55;1.05;;;26.40;64.90;;;;;;4934350;29;20032;-74
2022/06/24 19:08:16;;;;;;;1.90;1.00;;;26.40;64.90;;;;;;4917509;29;20027;-76
2022/06/24 19:10:45;;;;;;;2.85;0.80;;;26.20;65.30;;;;;;4934439;29;20024;-74
2022/06/24 19:13:11;;;;;;;3.30;0.90;;;26.20;65.80;;;;;;4917324;29;20415;-75
2022/06/24 19:15:37;;;;;;;2.72;1.13;;;26.20;66.30;;;;;;4934365;29;20031;-75
2022/06/24 19:18:04;;;;;;;6.35;1.58;;;26.20;66.50;;;;;;4934692;29;20039;-75
2022/06/24 19:20:30;;;;;;;3.50;1.23;;;26.10;66.90;;;;;;4934326;29;20170;-75
2022/06/24 19:22:56;;;;;;;3.08;0.95;;;26.10;67.00;;;;;;4933185;29;20155;-76
2022/06/24 19:25:24;;;;;;;1.98;1.25;;;26.10;67.20;;;;;;4934568;29;20027;-75
2022/06/24 19:27:51;;;;;;;2.05;1.15;;;26.00;67.50;;;;;;4934278;29;20024;-75
2022/06/24 19:30:17;;;;;;;3.80;1.13;;;26.00;67.30;;;;;;4934206;29;20063;-75
2022/06/24 19:32:42;;;;;;;4.53;1.00;;;25.90;67.50;;;;;;4934442;29;20027;-75
2022/06/24 19:35:08;;;;;;;2.33;0.80;;;25.80;68.10;;;;;;4937361;29;20055;-75
2022/06/24 19:37:34;;;;;;;3.08;1.17;;;25.70;68.20;;;;;;4953313;29;20114;-75
2022/06/24 19:40:03;;;;;;;3.15;1.10;;;25.70;68.40;;;;;;4953484;29;20031;-75
2022/06/24 19:42:30;;;;;;;2.53;1.02;;;25.80;68.70;;;;;;4953259;29;20497;-75
2022/06/24 19:44:56;;;;;;;2.97;1.13;;;25.70;68.80;;;;;;4968033;28;20035;-75
2022/06/24 19:47:22;;;;;;;2.40;1.30;;;25.70;68.90;;;;;;4953209;29;20042;-75
2022/06/24 19:49:48;;;;;;;5.50;1.38;;;25.80;68.90;;;;;;4953375;29;20027;-76
2022/06/24 19:52:14;;;;;;;4.63;1.27;;;25.70;68.90;;;;;;4953150;29;20033;-75
2022/06/24 19:54:39;;;;;;;3.35;0.85;;;25.60;69.20;;;;;;4953230;29;20024;-75
2022/06/24 19:57:05;;;;;;;3.97;1.25;;;25.60;69.70;;;;;;4936136;29;20045;-75
2022/06/24 19:59:31;;;;;;;2.55;1.10;;;25.50;70.40;;;;;;4953190;29;20500;-75
2022/06/24 20:07:25;;;;;;;4.13;1.25;;;25.20;71.60;;;;;;4950703;29;20045;-75
2022/06/24 20:09:51;;;;;;;3.30;1.08;;;25.20;72.10;;;;;;4952337;29;20385;-75
2022/06/24 20:12:17;;;;;;;4.00;1.25;;;25.20;72.10;;;;;;4937583;29;20502;-75
2022/06/24 20:14:42;;;;;;;4.25;1.65;;;25.10;72.30;;;;;;4920302;29;20031;-76
2022/06/24 20:17:09;;;;;;;4.50;1.00;;;25.00;72.60;;;;;;4920303;29;20537;-75
2022/06/24 20:19:35;;;;;;;3.45;1.48;;;25.00;73.10;;;;;;4937578;29;20401;-75
2022/06/24 20:22:02;;;;;;;4.38;1.10;;;24.80;73.50;;;;;;4920561;29;20042;-75
2022/06/24 20:24:33;;;;;;;0.70;0.70;;;24.80;74.00;;;;;;4937277;29;20082;-75
2022/06/24 20:26:59;;;;;;;6.00;1.10;;;24.80;74.30;;;;;;4951790;29;20023;-75
2022/06/24 20:29:25;;;;;;;5.50;0.98;;;24.70;74.60;;;;;;4920131;29;20039;-75
2022/06/24 20:31:51;;;;;;;2.55;1.27;;;24.70;75.00;;;;;;4937435;29;20016;-75
2022/06/24 20:34:16;;;;;;;3.75;1.10;;;24.70;75.20;;;;;;4935849;29;20493;-75
2022/06/24 20:36:44;;;;;;;4.18;1.52;;;24.60;75.10;;;;;;4919945;29;20043;-75
2022/06/24 20:39:12;;;;;;;5.00;1.60;;;24.60;76.00;;;;;;4939139;29;20043;-75
2022/06/24 20:41:39;;;;;;;3.17;1.27;;;24.60;76.10;;;;;;4956135;29;20102;-74
2022/06/24 20:44:06;;;;;;;1.60;1.05;;;24.60;76.20;;;;;;4955618;29;20034;-75
2022/06/24 20:46:32;;;;;;;4.53;1.27;;;24.60;76.30;;;;;;4956236;29;20063;-75
2022/06/24 20:49:05;;;;;;;5.13;0.98;;;24.50;76.50;;;;;;4954633;29;20065;-75
2022/06/24 20:51:32;;;;;;;4.40;0.98;;;24.50;76.80;;;;;;4956175;29;20074;-76
2022/06/24 20:54:03;;;;;;;3.63;0.93;;;24.40;76.90;;;;;;4938703;29;20030;-75
2022/06/24 20:56:29;;;;;;;3.05;1.25;;;24.40;77.40;;;;;;4955943;29;20555;-75
2022/06/24 20:58:56;;;;;;;4.60;1.20;;;24.40;77.70;;;;;;4956101;29;20110;-75
2022/06/24 21:01:21;;;;;;;2.72;1.48;;;24.30;77.80;;;;;;4938777;29;20513;-75
2022/06/24 21:03:47;;;;;;;5.57;1.40;;;24.30;78.10;;;;;;4938537;29;20118;-74
2022/06/24 21:06:16;;;;;;;3.38;1.00;;;24.30;78.30;;;;;;4955917;29;20113;-75
2022/06/24 21:08:45;;;;;;;2.00;1.13;;;24.30;78.50;;;;;;4955771;29;20016;-74
2022/06/24 21:11:10;;;;;;;3.95;1.33;;;24.20;78.70;;;;;;4938436;29;20030;-75
2022/06/24 21:13:36;;;;;;;1.92;1.00;;;24.20;79.00;;;;;;4969646;28;20118;-75
2022/06/24 21:16:02;;;;;;;3.53;1.20;;;24.20;79.30;;;;;;4938447;29;20391;-75
2022/06/24 21:18:28;;;;;;;7.68;1.50;;;24.10;79.70;;;;;;4955295;29;20078;-75
2022/06/24 21:20:55;;;;;;;4.65;1.33;;;24.00;80.00;;;;;;4955363;29;20031;-75
2022/06/24 21:23:37;;;;;;;4.32;1.63;;;24.00;80.30;;;;;;4955412;29;20553;-75
2022/06/24 21:26:03;;;;;;;2.58;1.83;;;24.10;80.30;;;;;;4938250;29;20035;-75
2022/06/24 21:28:29;;;;;;;2.17;0.93;;;24.10;80.50;;;;;;4938010;29;20030;-75
2022/06/24 21:30:55;;;;;;;2.53;1.35;;;24.00;80.70;;;;;;4938196;29;20027;-75
2022/06/24 21:33:20;;;;;;;2.22;1.33;;;24.00;81.00;;;;;;4937900;29;20512;-75
2022/06/24 21:35:46;;;;;;;6.63;1.10;;;24.00;81.40;;;;;;4961447;28;20051;-75
2022/06/24 21:38:13;;;;;;;3.63;1.00;;;23.90;81.60;;;;;;4906820;29;20024;-75
2022/06/24 21:40:39;;;;;;;2.92;1.20;;;23.90;81.80;;;;;;4900175;29;20028;-74
2022/06/24 21:43:05;;;;;;;2.35;0.90;;;23.90;82.20;;;;;;4916804;29;20035;-75
2022/06/24 21:45:30;;;;;;;1.50;1.35;;;23.80;82.40;;;;;;4916672;29;20103;-75
2022/06/24 21:47:56;;;;;;;3.10;1.20;;;23.80;83.00;;;;;;4900030;29;20115;-75
2022/06/24 21:50:23;;;;;;;6.45;2.10;;;23.70;83.30;;;;;;4916828;29;20526;-74
2022/06/24 21:52:49;;;;;;;2.95;1.20;;;23.70;83.80;;;;;;4916632;29;20031;-75
2022/06/24 21:55:15;;;;;;;4.63;1.70;;;23.70;84.00;;;;;;4916680;29;20489;-75
2022/06/24 21:57:40;;;;;;;1.30;1.02;;;23.70;84.10;;;;;;4916804;29;20032;-75
2022/06/24 22:00:11;;;;;;;3.35;1.20;;;23.60;84.30;;;;;;4916534;29;20036;-75
2022/06/24 22:02:37;;;;;;;5.93;1.60;;;23.60;84.90;;;;;;4899730;29;20091;-75
2022/06/24 22:05:03;;;;;;;7.22;1.55;;;23.50;85.20;;;;;;4916373;29;20040;-75
2022/06/24 22:07:29;;;;;;;1.58;1.30;;;23.40;85.90;;;;;;4906026;29;20031;-75
2022/06/24 22:09:58;;;;;;;2.53;1.30;;;23.40;86.30;;;;;;4935507;29;20035;-75
2022/06/24 22:12:24;;;;;;;4.50;1.27;;;23.40;86.90;;;;;;4935583;29;20024;-74
2022/06/24 22:14:50;;;;;;;3.55;0.93;;;23.40;87.00;;;;;;4935573;29;20030;-74
2022/06/24 22:17:16;;;;;;;3.30;1.30;;;23.30;87.30;;;;;;4935275;29;20155;-75
2022/06/24 22:19:42;;;;;;;2.97;1.25;;;23.30;87.60;;;;;;4918313;29;20114;-75
2022/06/24 22:22:07;;;;;;;3.63;1.40;;;23.30;88.00;;;;;;4949950;29;20163;-74
2022/06/24 22:24:33;;;;;;;10.25;1.45;;;23.20;88.40;;;;;;4935211;29;20028;-75
2022/06/24 22:27:02;;;;;;;6.00;1.20;;;23.20;88.80;;;;;;4935047;29;20031;-75
2022/06/24 22:29:27;;;;;;;2.63;1.25;;;23.20;89.10;;;;;;4935220;29;20038;-75
2022/06/24 22:31:53;;;;;;;8.48;6.57;;;23.20;89.50;;;;;;4928494;29;20020;-75
2022/06/24 22:34:19;;;;;;;7.47;6.15;;;23.30;96.80;;;;;;4916528;29;20111;-75
2022/06/24 22:36:45;;;;;;;13.45;5.13;;;23.60;99.90;;;;;;4912012;29;20055;-75
2022/06/24 22:39:10;;;;;;;10.95;2.58;;;23.80;98.30;;;;;;4917069;29;20123;-77
2022/06/24 22:41:36;;;;;;;2.60;1.23;;;23.90;95.40;;;;;;4916817;29;20024;-75
2022/06/24 22:44:02;;;;;;;7.50;1.48;;;23.80;92.60;;;;;;4899349;29;20047;-75
2022/06/24 22:46:28;;;;;;;5.55;1.60;;;23.70;92.40;;;;;;4916042;29;20083;-75
2022/06/24 22:48:53;;;;;;;2.42;1.27;;;23.60;92.40;;;;;;4916125;29;20482;-76
2022/06/24 22:51:19;;;;;;;4.32;1.63;;;23.40;92.60;;;;;;4899393;29;20374;-75
2022/06/24 22:53:45;;;;;;;3.10;1.15;;;23.30;92.80;;;;;;4898849;29;20036;-75
2022/06/24 22:56:10;;;;;;;3.03;1.52;;;23.30;93.00;;;;;;4916421;29;20021;-75
2022/06/24 22:58:36;;;;;;;3.67;1.30;;;23.30;93.10;;;;;;4916601;29;20462;-75
2022/06/24 23:01:02;;;;;;;2.10;1.27;;;23.30;93.30;;;;;;4900048;29;20059;-75
2022/06/24 23:03:27;;;;;;;3.70;1.40;;;23.30;93.20;;;;;;4916757;29;20112;-75
2022/06/24 23:05:53;;;;;;;4.45;1.15;;;23.30;93.20;;;;;;4899646;29;20603;-75
2022/06/24 23:08:19;;;;;;;1.92;1.20;;;23.30;93.20;;;;;;4916733;29;20143;-75
2022/06/24 23:10:45;;;;;;;7.78;1.60;;;23.20;93.30;;;;;;4916738;29;20364;-75
2022/06/24 23:13:10;;;;;;;3.10;1.20;;;23.20;93.30;;;;;;4915418;29;20099;-75
2022/06/24 23:15:36;;;;;;;2.58;1.23;;;23.20;93.50;;;;;;4899186;29;20060;-75
2022/06/24 23:18:02;;;;;;;5.13;1.52;;;23.10;93.60;;;;;;4898545;29;20463;-76
2022/06/24 23:20:29;;;;;;;3.70;1.08;;;23.20;93.80;;;;;;4898549;29;20020;-75
2022/06/24 23:22:55;;;;;;;3.13;1.20;;;23.10;93.80;;;;;;4916264;29;20051;-76
2022/06/24 23:25:21;;;;;;;1.27;1.00;;;23.10;93.90;;;;;;4914653;29;20056;-76
2022/06/24 23:27:46;;;;;;;3.63;1.35;;;23.00;94.10;;;;;;4916286;29;20028;-75
2022/06/24 23:30:12;;;;;;;3.70;2.00;;;23.00;94.30;;;;;;4899411;29;20032;-75
2022/06/24 23:32:38;;;;;;;2.65;1.30;;;22.90;94.50;;;;;;4916513;29;20513;-75
2022/06/24 23:35:04;;;;;;;4.30;1.45;;;22.90;94.80;;;;;;4901816;29;20083;-76
2022/06/24 23:37:29;;;;;;;4.82;1.52;;;22.80;95.00;;;;;;4938900;29;20032;-75
2022/06/24 23:39:55;;;;;;;2.20;1.48;;;22.70;95.20;;;;;;4922391;29;20039;-75
2022/06/24 23:42:24;;;;;;;3.55;1.30;;;22.70;95.20;;;;;;4939585;29;20027;-76
2022/06/24 23:44:50;;;;;;;4.85;1.50;;;22.70;95.40;;;;;;4938963;29;20115;-75
2022/06/24 23:47:16;;;;;;;5.32;1.63;;;22.60;95.60;;;;;;4939135;29;20031;-75
2022/06/24 23:52:26;;;;;;;3.28;1.30;;;22.60;95.90;;;;;;4939309;29;20046;-75
2022/06/24 23:54:52;;;;;;;2.28;1.30;;;22.60;95.90;;;;;;4939215;29;20114;-76
2022/06/24 23:57:17;;;;;;;4.88;1.70;;;22.60;96.00;;;;;;4938883;29;20028;-75
2022/06/24 23:59:43;;;;;;;3.53;1.40;;;22.60;96.00;;;;;;4939042;29;20031;-75
